Albany, Oregon
Current Conditions -  °F | °C
As of 1:55 PM on Monday 24 Nov 2014 (Local Time) from KCVO Reporting Station
Overcast Overcast  
Wind Chill: 12°   Ceiling: 4400
Heat Index: 12°   Visibility: 10mi
Dew Point:   Wind: 10mph
Humidity: 67%   Direction: 160°SSE
Pressure: 30.33"   Gusts: NA
Location:  44.64°N, 123.1°W
Report Text: KCVO 242155Z AUTO 16009KT 10SM OVC044 12/06 A3033 RMK AO1
Loading
Personal Weather Stations






























Interactive Weather Map New forecast layout! Learn more

10-Day Weather Forecast

Advertisements
Track Severe Weather on mobile